sensor_id;sensor_type;location;lat;lon;timestamp;pressure;altitude;pressure_sealevel;temperature;humidity
46223;BME280;31943;51.410;7.564;2023-04-26T00:00:13;100502.75;;;5.42;58.23
46223;BME280;31943;51.410;7.564;2023-04-26T00:02:39;100495.66;;;5.37;58.14
46223;BME280;31943;51.410;7.564;2023-04-26T00:05:07;100504.19;;;5.34;58.31
46223;BME280;31943;51.410;7.564;2023-04-26T00:07:33;100508.28;;;5.27;58.16
46223;BME280;31943;51.410;7.564;2023-04-26T00:09:58;100513.19;;;5.20;58.39
46223;BME280;31943;51.410;7.564;2023-04-26T00:12:24;100511.25;;;5.14;58.32
46223;BME280;31943;51.410;7.564;2023-04-26T00:14:49;100512.78;;;5.09;58.52
46223;BME280;31943;51.410;7.564;2023-04-26T00:17:15;100514.34;;;5.04;58.76
46223;BME280;31943;51.410;7.564;2023-04-26T00:19:41;100512.56;;;5.03;58.96
46223;BME280;31943;51.410;7.564;2023-04-26T00:22:09;100514.28;;;5.02;58.87
46223;BME280;31943;51.410;7.564;2023-04-26T00:24:35;100513.38;;;5.02;58.89
46223;BME280;31943;51.410;7.564;2023-04-26T00:27:00;100509.91;;;5.01;58.82
46223;BME280;31943;51.410;7.564;2023-04-26T00:29:26;100515.88;;;4.99;58.94
46223;BME280;31943;51.410;7.564;2023-04-26T00:31:52;100508.19;;;5.00;59.16
46223;BME280;31943;51.410;7.564;2023-04-26T00:34:18;100509.19;;;5.04;59.31
46223;BME280;31943;51.410;7.564;2023-04-26T00:36:44;100497.84;;;5.00;58.84
46223;BME280;31943;51.410;7.564;2023-04-26T00:39:12;100507.13;;;4.95;58.89
46223;BME280;31943;51.410;7.564;2023-04-26T00:41:37;100500.13;;;4.92;59.05
46223;BME280;31943;51.410;7.564;2023-04-26T00:44:03;100502.59;;;4.89;59.13
46223;BME280;31943;51.410;7.564;2023-04-26T00:46:29;100508.41;;;4.84;58.97
46223;BME280;31943;51.410;7.564;2023-04-26T00:48:55;100498.19;;;4.87;59.25
46223;BME280;31943;51.410;7.564;2023-04-26T00:51:21;100499.13;;;4.89;59.24
46223;BME280;31943;51.410;7.564;2023-04-26T00:53:47;100494.84;;;4.89;59.05
46223;BME280;31943;51.410;7.564;2023-04-26T00:56:15;100496.63;;;4.90;59.09
46223;BME280;31943;51.410;7.564;2023-04-26T00:58:41;100500.78;;;4.87;59.04
46223;BME280;31943;51.410;7.564;2023-04-26T01:01:07;100496.41;;;4.84;59.15
46223;BME280;31943;51.410;7.564;2023-04-26T01:03:33;100496.41;;;4.84;58.97
46223;BME280;31943;51.410;7.564;2023-04-26T01:05:59;100495.34;;;4.79;59.04
46223;BME280;31943;51.410;7.564;2023-04-26T01:08:25;100494.31;;;4.75;59.09
46223;BME280;31943;51.410;7.564;2023-04-26T01:10:51;100496.03;;;4.75;59.35
46223;BME280;31943;51.410;7.564;2023-04-26T01:13:21;100493.22;;;4.69;58.96
46223;BME280;31943;51.410;7.564;2023-04-26T01:15:47;100489.50;;;4.62;59.30
46223;BME280;31943;51.410;7.564;2023-04-26T01:18:14;100489.47;;;4.61;59.40
46223;BME280;31943;51.410;7.564;2023-04-26T01:20:40;100496.22;;;4.57;59.33
46223;BME280;31943;51.410;7.564;2023-04-26T01:23:07;100500.41;;;4.53;59.05
46223;BME280;31943;51.410;7.564;2023-04-26T01:25:33;100495.00;;;4.47;59.36
46223;BME280;31943;51.410;7.564;2023-04-26T01:27:59;100494.88;;;4.44;59.30
46223;BME280;31943;51.410;7.564;2023-04-26T01:30:25;100491.28;;;4.41;59.25
46223;BME280;31943;51.410;7.564;2023-04-26T01:32:50;100495.44;;;4.37;59.07
46223;BME280;31943;51.410;7.564;2023-04-26T01:35:16;100495.34;;;4.34;59.66
46223;BME280;31943;51.410;7.564;2023-04-26T01:37:42;100506.53;;;4.34;59.36
46223;BME280;31943;51.410;7.564;2023-04-26T01:40:10;100502.22;;;4.33;59.50
46223;BME280;31943;51.410;7.564;2023-04-26T01:42:36;100502.09;;;4.30;59.29
46223;BME280;31943;51.410;7.564;2023-04-26T01:45:02;100508.81;;;4.27;59.40
46223;BME280;31943;51.410;7.564;2023-04-26T01:47:28;100505.38;;;4.26;59.66
46223;BME280;31943;51.410;7.564;2023-04-26T01:49:53;100505.38;;;4.26;59.48
46223;BME280;31943;51.410;7.564;2023-04-26T01:52:19;100511.94;;;4.18;59.71
46223;BME280;31943;51.410;7.564;2023-04-26T01:54:45;100507.50;;;4.15;59.91
46223;BME280;31943;51.410;7.564;2023-04-26T01:57:12;100509.16;;;4.13;59.96
46223;BME280;31943;51.410;7.564;2023-04-26T01:59:38;100516.91;;;4.13;59.99
46223;BME280;31943;51.410;7.564;2023-04-26T02:02:03;100506.56;;;4.13;59.82
46223;BME280;31943;51.410;7.564;2023-04-26T02:04:29;100507.47;;;4.14;59.85
46223;BME280;31943;51.410;7.564;2023-04-26T02:06:54;100506.53;;;4.12;59.96
46223;BME280;31943;51.410;7.564;2023-04-26T02:09:20;100509.13;;;4.12;59.91
46223;BME280;31943;51.410;7.564;2023-04-26T02:11:45;100496.94;;;4.09;59.89
46223;BME280;31943;51.410;7.564;2023-04-26T02:14:13;100496.91;;;4.08;60.04
46223;BME280;31943;51.410;7.564;2023-04-26T02:16:39;100498.34;;;4.01;59.81
46223;BME280;31943;51.410;7.564;2023-04-26T02:19:04;100505.16;;;3.99;60.12
46223;BME280;31943;51.410;7.564;2023-04-26T02:21:30;100502.44;;;3.96;59.96
46223;BME280;31943;51.410;7.564;2023-04-26T02:23:55;100505.03;;;3.96;60.20
46223;BME280;31943;51.410;7.564;2023-04-26T02:26:21;100514.41;;;3.94;60.16
46223;BME280;31943;51.410;7.564;2023-04-26T02:28:46;100506.69;;;3.94;60.04
46223;BME280;31943;51.410;7.564;2023-04-26T02:31:13;100517.88;;;3.94;60.12
46223;BME280;31943;51.410;7.564;2023-04-26T02:33:39;100515.22;;;3.93;59.89
46223;BME280;31943;51.410;7.564;2023-04-26T02:36:06;100511.78;;;3.92;59.83
46223;BME280;31943;51.410;7.564;2023-04-26T02:38:33;100506.41;;;3.88;59.93
46223;BME280;31943;51.410;7.564;2023-04-26T02:40:59;100514.91;;;3.85;60.05
46223;BME280;31943;51.410;7.564;2023-04-26T02:43:24;100512.19;;;3.82;59.99
46223;BME280;31943;51.410;7.564;2023-04-26T02:45:50;100511.38;;;3.83;60.31
46223;BME280;31943;51.410;7.564;2023-04-26T02:48:17;100512.25;;;3.84;60.29
46223;BME280;31943;51.410;7.564;2023-04-26T02:50:42;100516.69;;;3.86;60.53
46223;BME280;31943;51.410;7.564;2023-04-26T02:53:08;100504.59;;;3.85;60.51
46223;BME280;31943;51.410;7.564;2023-04-26T02:55:34;100505.34;;;3.83;60.31
46223;BME280;31943;51.410;7.564;2023-04-26T02:57:59;100509.50;;;3.79;60.21
46223;BME280;31943;51.410;7.564;2023-04-26T03:00:25;100502.56;;;3.78;60.32
46223;BME280;31943;51.410;7.564;2023-04-26T03:02:51;100505.97;;;3.77;60.21
46223;BME280;31943;51.410;7.564;2023-04-26T03:05:19;100494.56;;;3.72;60.15
46223;BME280;31943;51.410;7.564;2023-04-26T03:07:45;100498.72;;;3.68;60.18
46223;BME280;31943;51.410;7.564;2023-04-26T03:10:10;100496.09;;;3.67;60.13
46223;BME280;31943;51.410;7.564;2023-04-26T03:12:36;100498.59;;;3.65;60.40
46223;BME280;31943;51.410;7.564;2023-04-26T03:15:01;100496.88;;;3.66;60.76
46223;BME280;31943;51.410;7.564;2023-04-26T03:17:27;100501.94;;;3.63;60.36
46223;BME280;31943;51.410;7.564;2023-04-26T03:19:53;100501.09;;;3.64;60.52
46223;BME280;31943;51.410;7.564;2023-04-26T03:22:20;100500.34;;;3.66;60.63
46223;BME280;31943;51.410;7.564;2023-04-26T03:24:45;100498.59;;;3.65;60.68
46223;BME280;31943;51.410;7.564;2023-04-26T03:27:11;100498.47;;;3.62;60.40
46223;BME280;31943;51.410;7.564;2023-04-26T03:29:36;100495.00;;;3.62;60.57
46223;BME280;31943;51.410;7.564;2023-04-26T03:32:02;100500.16;;;3.62;60.74
46223;BME280;31943;51.410;7.564;2023-04-26T03:34:28;100497.72;;;3.65;60.88
46223;BME280;31943;51.410;7.564;2023-04-26T03:36:53;100494.25;;;3.64;60.85
46223;BME280;31943;51.410;7.564;2023-04-26T03:39:21;100488.13;;;3.62;60.75
46223;BME280;31943;51.410;7.564;2023-04-26T03:41:47;100492.34;;;3.60;60.62
46223;BME280;31943;51.410;7.564;2023-04-26T03:44:13;100485.38;;;3.58;60.80
46223;BME280;31943;51.410;7.564;2023-04-26T03:46:38;100487.09;;;3.57;60.84
46223;BME280;31943;51.410;7.564;2023-04-26T03:49:04;100494.75;;;3.55;60.64
46223;BME280;31943;51.410;7.564;2023-04-26T03:51:29;100492.03;;;3.52;60.59
46223;BME280;31943;51.410;7.564;2023-04-26T03:53:56;100493.59;;;3.49;60.41
46223;BME280;31943;51.410;7.564;2023-04-26T03:56:24;100491.69;;;3.45;60.42
46223;BME280;31943;51.410;7.564;2023-04-26T03:58:49;100491.69;;;3.45;60.63
46223;BME280;31943;51.410;7.564;2023-04-26T04:01:16;100488.25;;;3.44;60.87
46223;BME280;31943;51.410;7.564;2023-04-26T04:03:42;100497.75;;;3.45;60.93
46223;BME280;31943;51.410;7.564;2023-04-26T04:06:08;100493.47;;;3.46;60.92
46223;BME280;31943;51.410;7.564;2023-04-26T04:08:35;100484.88;;;3.45;60.69
46223;BME280;31943;51.410;7.564;2023-04-26T04:11:03;100491.66;;;3.43;60.81
46223;BME280;31943;51.410;7.564;2023-04-26T04:13:31;100487.44;;;3.45;60.86
46223;BME280;31943;51.410;7.564;2023-04-26T04:15:57;100481.28;;;3.42;60.66
46223;BME280;31943;51.410;7.564;2023-04-26T04:18:23;100481.97;;;3.38;60.59
46223;BME280;31943;51.410;7.564;2023-04-26T04:20:49;100486.22;;;3.37;60.86
46223;BME280;31943;51.410;7.564;2023-04-26T04:23:14;100484.41;;;3.34;60.62
46223;BME280;31943;51.410;7.564;2023-04-26T04:25:40;100493.69;;;3.31;60.76
46223;BME280;31943;51.410;7.564;2023-04-26T04:28:06;100486.72;;;3.28;60.81
46223;BME280;31943;51.410;7.564;2023-04-26T04:30:33;100490.16;;;3.29;60.85
46223;BME280;31943;51.410;7.564;2023-04-26T04:32:59;100487.50;;;3.27;61.00
46223;BME280;31943;51.410;7.564;2023-04-26T04:35:25;100492.75;;;3.29;60.95
46223;BME280;31943;51.410;7.564;2023-04-26T04:37:50;100492.66;;;3.27;60.89
46223;BME280;31943;51.410;7.564;2023-04-26T04:40:16;100497.84;;;3.27;60.91
46223;BME280;31943;51.410;7.564;2023-04-26T04:42:43;100497.84;;;3.27;60.91
46223;BME280;31943;51.410;7.564;2023-04-26T04:45:09;100503.00;;;3.27;60.98
46223;BME280;31943;51.410;7.564;2023-04-26T04:47:37;100505.63;;;3.29;60.99
46223;BME280;31943;51.410;7.564;2023-04-26T04:50:04;100507.34;;;3.28;61.24
46223;BME280;31943;51.410;7.564;2023-04-26T04:52:29;100507.41;;;3.30;61.15
46223;BME280;31943;51.410;7.564;2023-04-26T04:54:56;100516.97;;;3.32;61.02
46223;BME280;31943;51.410;7.564;2023-04-26T04:57:21;100509.25;;;3.32;60.99
46223;BME280;31943;51.410;7.564;2023-04-26T04:59:47;100515.34;;;3.34;61.22
46223;BME280;31943;51.410;7.564;2023-04-26T05:02:12;100511.13;;;3.36;61.28
46223;BME280;31943;51.410;7.564;2023-04-26T05:04:40;100514.81;;;3.42;61.28
46223;BME280;31943;51.410;7.564;2023-04-26T05:07:06;100517.66;;;3.48;61.42
46223;BME280;31943;51.410;7.564;2023-04-26T05:09:31;100514.31;;;3.50;61.33
46223;BME280;31943;51.410;7.564;2023-04-26T05:11:59;100517.91;;;3.54;61.52
46223;BME280;31943;51.410;7.564;2023-04-26T05:14:25;100517.97;;;3.55;61.56
46223;BME280;31943;51.410;7.564;2023-04-26T05:16:51;100522.50;;;3.61;61.61
46223;BME280;31943;51.410;7.564;2023-04-26T05:19:17;100518.31;;;3.63;61.73
46223;BME280;31943;51.410;7.564;2023-04-26T05:21:45;100519.34;;;3.68;61.75
46223;BME280;31943;51.410;7.564;2023-04-26T05:24:10;100528.03;;;3.70;61.67
46223;BME280;31943;51.410;7.564;2023-04-26T05:26:36;100534.28;;;3.75;61.74
46223;BME280;31943;51.410;7.564;2023-04-26T05:29:02;100530.16;;;3.79;61.55
46223;BME280;31943;51.410;7.564;2023-04-26T05:31:28;100534.69;;;3.85;61.46
46223;BME280;31943;51.410;7.564;2023-04-26T05:33:53;100538.31;;;3.90;61.56
46223;BME280;31943;51.410;7.564;2023-04-26T05:36:19;100542.94;;;3.97;61.50
46223;BME280;31943;51.410;7.564;2023-04-26T05:38:47;100542.38;;;4.04;61.57
46223;BME280;31943;51.410;7.564;2023-04-26T05:41:12;100546.16;;;4.12;61.51
46223;BME280;31943;51.410;7.564;2023-04-26T05:43:38;100543.75;;;4.17;61.36
46223;BME280;31943;51.410;7.564;2023-04-26T05:46:05;100543.03;;;4.21;61.52
46223;BME280;31943;51.410;7.564;2023-04-26T05:48:31;100547.50;;;4.25;61.52
46223;BME280;31943;51.410;7.564;2023-04-26T05:50:57;100544.28;;;4.31;61.58
46223;BME280;31943;51.410;7.564;2023-04-26T05:53:22;100553.94;;;4.35;61.54
46223;BME280;31943;51.410;7.564;2023-04-26T05:55:49;100551.63;;;4.41;61.57
46223;BME280;31943;51.410;7.564;2023-04-26T05:58:15;100550.22;;;4.49;61.59
46223;BME280;31943;51.410;7.564;2023-04-26T06:00:40;100550.44;;;4.55;61.50
46223;BME280;31943;51.410;7.564;2023-04-26T06:03:06;100560.25;;;4.64;61.35
46223;BME280;31943;51.410;7.564;2023-04-26T06:05:32;100552.91;;;4.75;61.18
46223;BME280;31943;51.410;7.564;2023-04-26T06:07:58;100555.72;;;4.81;61.34
46223;BME280;31943;51.410;7.564;2023-04-26T06:10:24;100562.06;;;4.89;61.14
46223;BME280;31943;51.410;7.564;2023-04-26T06:12:52;100563.22;;;4.98;61.15
46223;BME280;31943;51.410;7.564;2023-04-26T06:15:18;100564.44;;;5.06;61.18
46223;BME280;31943;51.410;7.564;2023-04-26T06:17:43;100565.53;;;5.12;61.11
46223;BME280;31943;51.410;7.564;2023-04-26T06:20:09;100559.63;;;5.17;61.28
46223;BME280;31943;51.410;7.564;2023-04-26T06:22:35;100565.25;;;5.29;60.89
46223;BME280;31943;51.410;7.564;2023-04-26T06:25:00;100566.44;;;5.37;61.13
46223;BME280;31943;51.410;7.564;2023-04-26T06:27:26;100567.81;;;5.51;61.02
46223;BME280;31943;51.410;7.564;2023-04-26T06:29:54;100568.28;;;5.65;60.98
46223;BME280;31943;51.410;7.564;2023-04-26T06:32:19;100567.78;;;5.75;60.87
46223;BME280;31943;51.410;7.564;2023-04-26T06:34:45;100569.03;;;5.87;60.64
46223;BME280;31943;51.410;7.564;2023-04-26T06:37:11;100568.25;;;5.89;60.58
46223;BME280;31943;51.410;7.564;2023-04-26T06:39:37;100579.47;;;5.90;60.71
46223;BME280;31943;51.410;7.564;2023-04-26T06:42:02;100566.09;;;6.02;60.51
46223;BME280;31943;51.410;7.564;2023-04-26T06:44:28;100562.06;;;6.10;60.56
46223;BME280;31943;51.410;7.564;2023-04-26T06:46:56;100564.94;;;6.19;60.25
46223;BME280;31943;51.410;7.564;2023-04-26T06:49:22;100568.03;;;6.34;60.19
46223;BME280;31943;51.410;7.564;2023-04-26T06:51:48;100565.00;;;6.48;59.52
46223;BME280;31943;51.410;7.564;2023-04-26T06:54:14;100567.84;;;6.56;59.62
46223;BME280;31943;51.410;7.564;2023-04-26T06:56:40;100566.47;;;6.67;59.22
46223;BME280;31943;51.410;7.564;2023-04-26T06:59:06;100573.81;;;6.80;59.11
46223;BME280;31943;51.410;7.564;2023-04-26T07:01:32;100575.91;;;6.93;58.77
46223;BME280;31943;51.410;7.564;2023-04-26T07:04:00;100571.84;;;7.02;58.64
46223;BME280;31943;51.410;7.564;2023-04-26T07:06:26;100577.50;;;7.19;58.71
46223;BME280;31943;51.410;7.564;2023-04-26T07:08:52;100575.34;;;7.34;58.09
46223;BME280;31943;51.410;7.564;2023-04-26T07:11:18;100572.28;;;7.47;57.70
46223;BME280;31943;51.410;7.564;2023-04-26T07:13:44;100572.88;;;7.69;57.09
46223;BME280;31943;51.410;7.564;2023-04-26T07:16:09;100568.09;;;7.86;57.08
46223;BME280;31943;51.410;7.564;2023-04-26T07:18:35;100570.88;;;7.93;56.80
46223;BME280;31943;51.410;7.564;2023-04-26T07:21:02;100564.59;;;8.19;55.81
46223;BME280;31943;51.410;7.564;2023-04-26T07:23:29;100562.22;;;8.28;54.76
46223;BME280;31943;51.410;7.564;2023-04-26T07:25:55;100555.34;;;8.30;53.86
46223;BME280;31943;51.410;7.564;2023-04-26T07:28:20;100566.81;;;8.03;54.05
46223;BME280;31943;51.410;7.564;2023-04-26T07:30:48;100559.31;;;7.81;54.79
46223;BME280;31943;51.410;7.564;2023-04-26T07:33:15;100553.47;;;7.89;54.75
46223;BME280;31943;51.410;7.564;2023-04-26T07:35:42;100552.13;;;8.04;54.20
46223;BME280;31943;51.410;7.564;2023-04-26T07:38:09;100555.44;;;7.98;54.73
46223;BME280;31943;51.410;7.564;2023-04-26T07:40:35;100561.78;;;7.76;54.39
46223;BME280;31943;51.410;7.564;2023-04-26T07:43:00;100560.16;;;7.48;55.04
46223;BME280;31943;51.410;7.564;2023-04-26T07:45:28;100556.31;;;7.33;55.13
46223;BME280;31943;51.410;7.564;2023-04-26T07:47:54;100558.00;;;7.31;55.36
46223;BME280;31943;51.410;7.564;2023-04-26T07:50:20;100564.16;;;7.37;55.61
46223;BME280;31943;51.410;7.564;2023-04-26T07:52:46;100568.53;;;7.38;55.95
46223;BME280;31943;51.410;7.564;2023-04-26T07:55:14;100556.38;;;7.37;55.31
46223;BME280;31943;51.410;7.564;2023-04-26T07:57:40;100562.69;;;7.45;54.65
46223;BME280;31943;51.410;7.564;2023-04-26T08:00:08;100565.47;;;7.51;54.79
46223;BME280;31943;51.410;7.564;2023-04-26T08:02:34;100564.91;;;7.63;54.27
46223;BME280;31943;51.410;7.564;2023-04-26T08:04:59;100559.94;;;8.05;52.22
46223;BME280;31943;51.410;7.564;2023-04-26T08:07:25;100555.50;;;8.36;51.31
46223;BME280;31943;51.410;7.564;2023-04-26T08:09:51;100546.47;;;8.57;49.04
46223;BME280;31943;51.410;7.564;2023-04-26T08:12:18;100551.44;;;8.85;49.14
46223;BME280;31943;51.410;7.564;2023-04-26T08:14:44;100549.56;;;9.21;49.03
46223;BME280;31943;51.410;7.564;2023-04-26T08:17:10;100547.44;;;9.44;48.38
46223;BME280;31943;51.410;7.564;2023-04-26T08:19:35;100546.81;;;9.57;47.21
46223;BME280;31943;51.410;7.564;2023-04-26T08:22:01;100553.84;;;9.61;47.29
46223;BME280;31943;51.410;7.564;2023-04-26T08:24:27;100549.47;;;9.59;47.14
46223;BME280;31943;51.410;7.564;2023-04-26T08:26:53;100550.84;;;9.40;47.42
46223;BME280;31943;51.410;7.564;2023-04-26T08:29:22;100550.13;;;9.04;47.59
46223;BME280;31943;51.410;7.564;2023-04-26T08:31:47;100544.50;;;8.86;47.24
46223;BME280;31943;51.410;7.564;2023-04-26T08:34:13;100549.44;;;8.74;47.73
46223;BME280;31943;51.410;7.564;2023-04-26T08:36:39;100542.19;;;8.59;47.11
46223;BME280;31943;51.410;7.564;2023-04-26T08:39:04;100552.38;;;8.49;46.76
46223;BME280;31943;51.410;7.564;2023-04-26T08:41:35;100545.97;;;8.37;47.47
46223;BME280;31943;51.410;7.564;2023-04-26T08:44:01;100543.56;;;8.44;47.85
46223;BME280;31943;51.410;7.564;2023-04-26T08:46:35;100545.97;;;8.73;47.66
46223;BME280;31943;51.410;7.564;2023-04-26T08:49:18;100545.00;;;9.09;46.58
46223;BME280;31943;51.410;7.564;2023-04-26T08:51:47;100538.53;;;9.31;46.06
46223;BME280;31943;51.410;7.564;2023-04-26T08:54:15;100545.22;;;9.20;45.75
46223;BME280;31943;51.410;7.564;2023-04-26T08:56:42;100550.31;;;9.15;46.24
46223;BME280;31943;51.410;7.564;2023-04-26T08:59:09;100550.94;;;9.03;46.53
46223;BME280;31943;51.410;7.564;2023-04-26T09:01:38;100545.13;;;9.15;46.62
46223;BME280;31943;51.410;7.564;2023-04-26T09:04:04;100553.13;;;9.24;45.18
46223;BME280;31943;51.410;7.564;2023-04-26T09:09:12;100546.53;;;9.42;45.23
46223;BME280;31943;51.410;7.564;2023-04-26T09:11:53;100546.00;;;9.60;45.30
46223;BME280;31943;51.410;7.564;2023-04-26T09:14:18;100553.28;;;9.78;44.05
46223;BME280;31943;51.410;7.564;2023-04-26T09:16:45;100549.69;;;9.71;43.70
46223;BME280;31943;51.410;7.564;2023-04-26T09:19:11;100552.72;;;9.48;44.53
46223;BME280;31943;51.410;7.564;2023-04-26T09:21:41;100552.44;;;9.35;44.62
46223;BME280;31943;51.410;7.564;2023-04-26T09:24:07;100552.31;;;9.27;44.63
46223;BME280;31943;51.410;7.564;2023-04-26T09:26:33;100547.88;;;9.21;44.47
46223;BME280;31943;51.410;7.564;2023-04-26T09:29:19;100549.50;;;9.16;44.16
46223;BME280;31943;51.410;7.564;2023-04-26T09:31:48;100552.75;;;9.07;44.47
46223;BME280;31943;51.410;7.564;2023-04-26T09:34:14;100560.44;;;9.01;44.43
46223;BME280;31943;51.410;7.564;2023-04-26T09:36:50;100553.59;;;9.05;44.84
46223;BME280;31943;51.410;7.564;2023-04-26T09:39:30;100549.34;;;9.08;45.49
46223;BME280;31943;51.410;7.564;2023-04-26T09:41:56;100553.25;;;9.30;45.08
46223;BME280;31943;51.410;7.564;2023-04-26T09:44:23;100542.34;;;9.50;45.00
46223;BME280;31943;51.410;7.564;2023-04-26T09:47:10;100549.75;;;9.76;44.25
46223;BME280;31943;51.410;7.564;2023-04-26T09:49:47;100537.84;;;9.88;43.33
46223;BME280;31943;51.410;7.564;2023-04-26T09:52:13;100551.00;;;9.96;43.09
46223;BME280;31943;51.410;7.564;2023-04-26T09:54:40;100550.97;;;9.95;42.50
46223;BME280;31943;51.410;7.564;2023-04-26T09:57:06;100547.53;;;9.97;42.75
46223;BME280;31943;51.410;7.564;2023-04-26T09:59:42;100546.16;;;10.18;41.66
46223;BME280;31943;51.410;7.564;2023-04-26T10:02:14;100549.56;;;10.15;41.01
46223;BME280;31943;51.410;7.564;2023-04-26T10:04:40;100541.53;;;10.03;41.80
46223;BME280;31943;51.410;7.564;2023-04-26T10:07:08;100541.59;;;10.04;41.94
46223;BME280;31943;51.410;7.564;2023-04-26T10:09:34;100542.63;;;10.14;42.14
46223;BME280;31943;51.410;7.564;2023-04-26T10:12:00;100534.72;;;10.09;43.20
46223;BME280;31943;51.410;7.564;2023-04-26T10:14:26;100540.00;;;10.14;41.73
46223;BME280;31943;51.410;7.564;2023-04-26T10:16:53;100532.06;;;10.06;40.73
46223;BME280;31943;51.410;7.564;2023-04-26T10:19:21;100532.88;;;10.04;41.03
46223;BME280;31943;51.410;7.564;2023-04-26T10:21:47;100531.81;;;9.93;41.16
46223;BME280;31943;51.410;7.564;2023-04-26T10:24:15;100525.63;;;9.87;40.96
46223;BME280;31943;51.410;7.564;2023-04-26T10:26:48;100523.13;;;9.94;41.67
46223;BME280;31943;51.410;7.564;2023-04-26T10:29:14;100519.81;;;10.02;41.23
46223;BME280;31943;51.410;7.564;2023-04-26T10:32:06;100526.66;;;9.94;42.07
46223;BME280;31943;51.410;7.564;2023-04-26T10:34:34;100525.38;;;9.72;42.80
46223;BME280;31943;51.410;7.564;2023-04-26T10:37:06;100525.91;;;9.53;42.96
46223;BME280;31943;51.410;7.564;2023-04-26T10:39:32;100519.69;;;9.46;42.97
46223;BME280;31943;51.410;7.564;2023-04-26T10:42:21;100521.50;;;9.50;43.19
46223;BME280;31943;51.410;7.564;2023-04-26T10:44:47;100525.00;;;9.52;42.90
46223;BME280;31943;51.410;7.564;2023-04-26T10:47:25;100526.94;;;9.61;43.08
46223;BME280;31943;51.410;7.564;2023-04-26T10:50:01;100520.16;;;9.70;43.14
46223;BME280;31943;51.410;7.564;2023-04-26T10:52:27;100518.53;;;9.77;42.08
46223;BME280;31943;51.410;7.564;2023-04-26T10:54:54;100515.25;;;9.89;42.40
46223;BME280;31943;51.410;7.564;2023-04-26T10:57:21;100516.34;;;10.03;41.92
46223;BME280;31943;51.410;7.564;2023-04-26T11:00:16;100512.81;;;9.98;42.58
46223;BME280;31943;51.410;7.564;2023-04-26T11:02:51;100512.84;;;10.01;42.41
46223;BME280;31943;51.410;7.564;2023-04-26T11:05:50;100521.56;;;10.02;43.05
46223;BME280;31943;51.410;7.564;2023-04-26T11:08:17;100520.47;;;9.89;43.02
46223;BME280;31943;51.410;7.564;2023-04-26T11:10:49;100532.50;;;9.81;43.02
46223;BME280;31943;51.410;7.564;2023-04-26T11:13:16;100526.19;;;9.69;43.27
46223;BME280;31943;51.410;7.564;2023-04-26T11:15:41;100528.78;;;9.68;42.94
46223;BME280;31943;51.410;7.564;2023-04-26T11:18:07;100528.06;;;9.77;42.92
46223;BME280;31943;51.410;7.564;2023-04-26T11:20:33;100518.72;;;9.89;42.84
46223;BME280;31943;51.410;7.564;2023-04-26T11:23:00;100517.13;;;9.96;42.70
46223;BME280;31943;51.410;7.564;2023-04-26T11:25:26;100517.25;;;10.04;42.74
46223;BME280;31943;51.410;7.564;2023-04-26T11:27:57;100520.00;;;10.15;42.07
46223;BME280;31943;51.410;7.564;2023-04-26T11:30:23;100527.22;;;10.29;42.51
46223;BME280;31943;51.410;7.564;2023-04-26T11:32:48;100520.50;;;10.44;42.23
46223;BME280;31943;51.410;7.564;2023-04-26T11:35:14;100523.28;;;10.55;41.93
46223;BME280;31943;51.410;7.564;2023-04-26T11:37:40;100511.31;;;10.72;41.66
46223;BME280;31943;51.410;7.564;2023-04-26T11:40:09;100513.31;;;10.92;39.76
46223;BME280;31943;51.410;7.564;2023-04-26T11:42:35;100510.69;;;10.88;39.39
46223;BME280;31943;51.410;7.564;2023-04-26T11:45:01;100507.84;;;10.72;39.19
46223;BME280;31943;51.410;7.564;2023-04-26T11:47:27;100501.00;;;10.81;40.01
46223;BME280;31943;51.410;7.564;2023-04-26T11:49:53;100506.75;;;11.24;39.26
46223;BME280;31943;51.410;7.564;2023-04-26T11:52:18;100500.53;;;11.15;38.79
46223;BME280;31943;51.410;7.564;2023-04-26T11:54:44;100495.88;;;10.89;38.71
46223;BME280;31943;51.410;7.564;2023-04-26T11:57:15;100497.59;;;10.84;38.39
46223;BME280;31943;51.410;7.564;2023-04-26T11:59:41;100495.75;;;10.78;38.18
46223;BME280;31943;51.410;7.564;2023-04-26T12:02:07;100496.69;;;10.83;38.99
46223;BME280;31943;51.410;7.564;2023-04-26T12:04:33;100494.06;;;10.80;38.96
46223;BME280;31943;51.410;7.564;2023-04-26T12:06:59;100507.84;;;10.72;39.16
46223;BME280;31943;51.410;7.564;2023-04-26T12:09:26;100506.09;;;10.71;38.85
46223;BME280;31943;51.410;7.564;2023-04-26T12:11:59;100502.59;;;10.68;38.68
46223;BME280;31943;51.410;7.564;2023-04-26T12:14:32;100502.81;;;10.85;38.91
46223;BME280;31943;51.410;7.564;2023-04-26T12:16:59;100509.25;;;11.15;38.93
46223;BME280;31943;51.410;7.564;2023-04-26T12:19:24;100505.09;;;11.31;38.95
46223;BME280;31943;51.410;7.564;2023-04-26T12:21:50;100500.13;;;11.56;39.11
46223;BME280;31943;51.410;7.564;2023-04-26T12:24:23;100513.22;;;11.57;38.89
46223;BME280;31943;51.410;7.564;2023-04-26T12:26:52;100512.25;;;11.49;38.00
46223;BME280;31943;51.410;7.564;2023-04-26T12:29:17;100504.22;;;11.32;38.93
46223;BME280;31943;51.410;7.564;2023-04-26T12:31:45;100510.41;;;11.39;39.01
46223;BME280;31943;51.410;7.564;2023-04-26T12:34:11;100505.53;;;11.74;38.36
46223;BME280;31943;51.410;7.564;2023-04-26T12:36:38;100504.84;;;11.91;39.05
46223;BME280;31943;51.410;7.564;2023-04-26T12:39:04;100506.44;;;11.76;37.60
46223;BME280;31943;51.410;7.564;2023-04-26T12:41:30;100510.56;;;11.54;38.54
46223;BME280;31943;51.410;7.564;2023-04-26T12:43:56;100498.44;;;11.61;39.14
46223;BME280;31943;51.410;7.564;2023-04-26T12:46:22;100509.81;;;11.67;38.96
46223;BME280;31943;51.410;7.564;2023-04-26T12:48:49;100503.75;;;11.72;37.50
46223;BME280;31943;51.410;7.564;2023-04-26T12:51:14;100511.72;;;11.82;37.55
46223;BME280;31943;51.410;7.564;2023-04-26T12:53:40;100500.38;;;11.80;37.80
46223;BME280;31943;51.410;7.564;2023-04-26T12:56:06;100504.56;;;11.63;38.07
46223;BME280;31943;51.410;7.564;2023-04-26T12:58:31;100500.22;;;11.65;37.54